Flight Track Log - Related Links

Times and Time Zones

All times are in EDT time to prevent confusion due to time zone crossing. See the DAL6221 flight status page for this flight to view local times or setup timezone preferences in your user account.

Time Position Orientation Groundspeed Altitude Reporting Facility
EDT Latitude Longitude Course Direction KTS MPH feet Rate Location/Type
Mon 02:41:25 PM 44.3467 -73.1542 195° South 206 237 7,500  Level Boston Center
Mon 02:42:25 PM 44.2797 -73.1825 197° South 240 276 10,300 2,167 Climbing Boston Center
Mon 02:44:25 PM 44.1064 -73.2556 197° South 333 383 14,000 1,900 Climbing Boston Center
Mon 02:45:00 PM 43.9159 -73.3603 196° South  Level FlightAware Approximate
Mon 02:45:25 PM 44.0061 -73.2972 197° South 362 417 16,000  Level Boston Center
Mon 02:46:00 PM 43.8240 -73.3953 195° South  Level FlightAware Approximate
Mon 02:46:25 PM 43.9014 -73.3392 196° South 385 443 17,800  Level Boston Center
Mon 02:47:25 PM 43.7969 -73.3836 197° South 392 451 19,800 1,850 Climbing Boston Center
Mon 02:48:25 PM 43.6883 -73.4250 195° South 402 463 21,500 1,100 Climbing Boston Center
Mon 02:49:25 PM 43.5836 -73.4692 197° South 414 476 22,000 250 Climbing Boston Center
Mon 02:50:25 PM 43.4708 -73.5158 197° South 426 490 22,000  Level Boston Center
Mon 02:51:25 PM 43.3597 -73.5594 196° South 426 490 22,000 -100 Level Boston Center
Mon 02:52:25 PM 43.2469 -73.6058 197° South 421 484 21,800 -650 Descending Boston Center
Mon 02:53:25 PM 43.1214 -73.6547 196° South 421 484 20,700 -900 Descending Boston Center
Mon 02:54:25 PM 43.0083 -73.7036 198° South 426 490 20,000 -350 Descending Boston Center
Mon 02:55:25 PM 42.8972 -73.7467 196° South 421 484 20,000  Level Boston Center
Mon 02:56:25 PM 42.7883 -73.7925 197° South 415 478 20,000 -50 Level Boston Center
Mon 02:57:25 PM 42.6778 -73.7956 181° South 409 471 19,900  Descending Boston Center
Mon 02:58:25 PM 42.5678 -73.7736 172° South 404 465 20,000 50 Climbing Boston Center
Mon 02:59:25 PM 42.4553 -73.7486 171° South 404 465 20,000  Level Boston Center
Mon 03:00:25 PM 42.3431 -73.7239 171° South 404 465 20,000 -350 Level Boston Center
Mon 03:01:25 PM 42.2264 -73.7131 176° South 416 479 19,300 -1,000 Descending Boston Center
Mon 03:02:25 PM 42.1097 -73.7217 183° South 421 484 18,000 -650 Descending Boston Center
Mon 03:03:25 PM 41.9969 -73.7306 183° South 416 479 18,000  Level Boston Center
Mon 03:04:25 PM 41.8947 -73.7453 186° South 411 473 18,000 -950 Level Boston Center
Mon 03:05:25 PM 41.7989 -73.7544 184° South 404 465 16,100 -1,950 Descending Boston Center
Mon 03:06:25 PM 41.6839 -73.7661 184° South 391 450 14,100 -1,923 Descending Boston Center
Mon 03:08:01 PM 41.5167 -73.7833 184° South 344 396 11,100 -1,654 Descending New York TRACON
Mon 03:09:01 PM 41.4333 -73.7833 180° South 278 320 9,800 -1,300 Descending New York TRACON
Mon 03:10:01 PM 41.3667 -73.8000 191° South 268 308 8,500 -1,200 Descending New York TRACON
Mon 03:11:01 PM 41.3000 -73.7500 151° Southeast 259 298 7,400 -1,050 Descending New York TRACON
Mon 03:12:01 PM 41.2333 -73.7000 151° Southeast 256 295 6,400 -1,000 Descending New York TRACON
Mon 03:13:01 PM 41.1833 -73.6500 143° Southeast 246 283 5,400 -1,000 Descending New York TRACON
Mon 03:14:01 PM 41.1167 -73.6500 180° South 240 276 4,400 -700 Descending New York TRACON
Mon 03:15:01 PM 41.0500 -73.6500 180° South 238 274 4,000 -200 Descending New York TRACON
Mon 03:16:01 PM 40.9833 -73.7000 210° Southwest 235 270 4,000  Level New York TRACON
Mon 03:17:01 PM 40.9500 -73.7333 217° Southwest 173 199 4,000 -550 Level New York TRACON
Mon 03:18:01 PM 40.9000 -73.7667 207° Southwest 163 188 2,900 -950 Descending New York TRACON
Mon 03:19:01 PM 40.8667 -73.8000 217° Southwest 150 173 2,100 -750 Descending New York TRACON
Mon 03:20:01 PM 40.8333 -73.8333 217° Southwest 135 155 1,400 -700 Descending New York TRACON
Mon 03:21:01 PM 40.8167 -73.8500 217° Southwest 129 148 700 -700 Descending New York TRACON
Mon 03:23:00 PM 40.7772 -73.8726 180° South  Level Estimated
Mon 03:30:00 PM 40.7772 -73.8726 180° South  Level Estimated

Login

Don't have an account? Register now (free) for customized features, flight alerts, and more!